sensor_id;sensor_type;location;lat;lon;timestamp;temperature;humidity
1103;DHT22;538;42.654;23.376;2023-05-07T00:06:50;13.40;23.90
1103;DHT22;538;42.654;23.376;2023-05-07T00:09:17;13.40;23.80
1103;DHT22;538;42.654;23.376;2023-05-07T00:11:45;13.20;23.50
1103;DHT22;538;42.654;23.376;2023-05-07T00:14:12;13.30;24.20
1103;DHT22;538;42.654;23.376;2023-05-07T00:16:39;13.30;25.40
1103;DHT22;538;42.654;23.376;2023-05-07T00:19:06;13.20;25.90
1103;DHT22;538;42.654;23.376;2023-05-07T00:24:01;13.10;27.30
1103;DHT22;538;42.654;23.376;2023-05-07T00:26:28;13.20;28.20
1103;DHT22;538;42.654;23.376;2023-05-07T00:28:56;13.10;29.10
1103;DHT22;538;42.654;23.376;2023-05-07T00:31:24;13.10;29.70
1103;DHT22;538;42.654;23.376;2023-05-07T00:33:51;13.20;29.80
1103;DHT22;538;42.654;23.376;2023-05-07T00:36:18;13.00;28.80
1103;DHT22;538;42.654;23.376;2023-05-07T00:38:45;12.90;28.70
1103;DHT22;538;42.654;23.376;2023-05-07T00:41:12;13.00;28.90
1103;DHT22;538;42.654;23.376;2023-05-07T00:43:39;13.10;29.70
1103;DHT22;538;42.654;23.376;2023-05-07T00:46:08;13.10;29.90
1103;DHT22;538;42.654;23.376;2023-05-07T00:51:03;12.90;28.50
1103;DHT22;538;42.654;23.376;2023-05-07T00:55:57;12.80;28.50
1103;DHT22;538;42.654;23.376;2023-05-07T00:58:26;12.70;28.20
1103;DHT22;538;42.654;23.376;2023-05-07T01:03:22;12.60;28.20
1103;DHT22;538;42.654;23.376;2023-05-07T01:05:49;12.40;28.60
1103;DHT22;538;42.654;23.376;2023-05-07T01:08:18;12.40;29.10
1103;DHT22;538;42.654;23.376;2023-05-07T01:10:45;12.20;28.70
1103;DHT22;538;42.654;23.376;2023-05-07T01:13:14;12.30;29.20
1103;DHT22;538;42.654;23.376;2023-05-07T01:18:08;12.20;29.80
1103;DHT22;538;42.654;23.376;2023-05-07T01:20:36;12.20;30.20
1103;DHT22;538;42.654;23.376;2023-05-07T01:23:07;12.20;31.40
1103;DHT22;538;42.654;23.376;2023-05-07T01:25:36;12.00;32.10
1103;DHT22;538;42.654;23.376;2023-05-07T01:30:33;11.90;34.00
1103;DHT22;538;42.654;23.376;2023-05-07T01:33:04;11.90;35.20
1103;DHT22;538;42.654;23.376;2023-05-07T01:35:37;11.70;37.40
1103;DHT22;538;42.654;23.376;2023-05-07T01:38:07;11.70;38.30
1103;DHT22;538;42.654;23.376;2023-05-07T01:40:35;11.30;38.10
1103;DHT22;538;42.654;23.376;2023-05-07T01:43:02;11.80;39.20
1103;DHT22;538;42.654;23.376;2023-05-07T01:45:30;11.60;41.10
1103;DHT22;538;42.654;23.376;2023-05-07T01:47:58;11.60;42.90
1103;DHT22;538;42.654;23.376;2023-05-07T01:50:26;11.60;44.30
1103;DHT22;538;42.654;23.376;2023-05-07T01:55:22;11.60;45.50
1103;DHT22;538;42.654;23.376;2023-05-07T01:57:49;11.80;46.10
1103;DHT22;538;42.654;23.376;2023-05-07T02:00:17;11.80;47.10
1103;DHT22;538;42.654;23.376;2023-05-07T02:02:44;11.80;47.70
1103;DHT22;538;42.654;23.376;2023-05-07T02:05:11;11.70;47.50
1103;DHT22;538;42.654;23.376;2023-05-07T02:10:06;12.00;46.90
1103;DHT22;538;42.654;23.376;2023-05-07T02:12:35;11.80;46.10
1103;DHT22;538;42.654;23.376;2023-05-07T02:15:02;11.90;45.40
1103;DHT22;538;42.654;23.376;2023-05-07T02:17:29;11.80;45.50
1103;DHT22;538;42.654;23.376;2023-05-07T02:19:58;11.80;45.80
1103;DHT22;538;42.654;23.376;2023-05-07T02:22:25;11.90;45.60
1103;DHT22;538;42.654;23.376;2023-05-07T02:24:52;12.00;45.20
1103;DHT22;538;42.654;23.376;2023-05-07T02:27:19;11.90;45.70
1103;DHT22;538;42.654;23.376;2023-05-07T02:29:48;11.90;45.40
1103;DHT22;538;42.654;23.376;2023-05-07T02:32:15;11.80;45.90
1103;DHT22;538;42.654;23.376;2023-05-07T02:37:09;11.90;46.70
1103;DHT22;538;42.654;23.376;2023-05-07T02:39:36;11.80;46.40
1103;DHT22;538;42.654;23.376;2023-05-07T02:46:59;11.80;46.80
1103;DHT22;538;42.654;23.376;2023-05-07T02:51:53;11.90;47.00
1103;DHT22;538;42.654;23.376;2023-05-07T02:54:20;11.70;47.50
1103;DHT22;538;42.654;23.376;2023-05-07T03:01:42;11.70;47.60
1103;DHT22;538;42.654;23.376;2023-05-07T03:04:12;11.60;47.90
1103;DHT22;538;42.654;23.376;2023-05-07T03:06:39;11.50;47.90
1103;DHT22;538;42.654;23.376;2023-05-07T03:11:34;11.60;48.50
1103;DHT22;538;42.654;23.376;2023-05-07T03:16:29;11.70;49.10
1103;DHT22;538;42.654;23.376;2023-05-07T03:18:56;11.70;49.00
1103;DHT22;538;42.654;23.376;2023-05-07T03:21:24;11.70;48.80
1103;DHT22;538;42.654;23.376;2023-05-07T03:23:52;11.70;50.50
1103;DHT22;538;42.654;23.376;2023-05-07T03:28:46;11.70;50.70
1103;DHT22;538;42.654;23.376;2023-05-07T03:33:50;11.90;50.70
1103;DHT22;538;42.654;23.376;2023-05-07T03:36:18;11.70;50.90
1103;DHT22;538;42.654;23.376;2023-05-07T03:38:46;11.70;51.90
1103;DHT22;538;42.654;23.376;2023-05-07T03:41:14;11.80;52.90
1103;DHT22;538;42.654;23.376;2023-05-07T03:46:08;11.70;52.80
1103;DHT22;538;42.654;23.376;2023-05-07T03:48:35;11.80;55.10
1103;DHT22;538;42.654;23.376;2023-05-07T03:53:29;11.70;55.70
1103;DHT22;538;42.654;23.376;2023-05-07T03:55:58;11.70;56.60
1103;DHT22;538;42.654;23.376;2023-05-07T03:58:24;11.80;57.00
1103;DHT22;538;42.654;23.376;2023-05-07T04:08:13;11.80;57.90
1103;DHT22;538;42.654;23.376;2023-05-07T04:13:09;11.80;58.60
1103;DHT22;538;42.654;23.376;2023-05-07T04:15:36;12.00;57.60
1103;DHT22;538;42.654;23.376;2023-05-07T04:18:03;12.00;57.50
1103;DHT22;538;42.654;23.376;2023-05-07T04:20:30;12.00;56.10
1103;DHT22;538;42.654;23.376;2023-05-07T04:22:57;11.90;54.20
1103;DHT22;538;42.654;23.376;2023-05-07T04:25:24;11.90;53.70
1103;DHT22;538;42.654;23.376;2023-05-07T04:27:52;12.10;53.30
1103;DHT22;538;42.654;23.376;2023-05-07T04:30:20;11.90;53.00
1103;DHT22;538;42.654;23.376;2023-05-07T04:37:42;12.30;50.30
1103;DHT22;538;42.654;23.376;2023-05-07T04:40:09;12.40;50.10
1103;DHT22;538;42.654;23.376;2023-05-07T04:42:36;12.40;49.20
1103;DHT22;538;42.654;23.376;2023-05-07T04:45:04;12.40;49.10
1103;DHT22;538;42.654;23.376;2023-05-07T04:47:32;12.50;49.10
1103;DHT22;538;42.654;23.376;2023-05-07T04:52:27;12.60;48.30
1103;DHT22;538;42.654;23.376;2023-05-07T04:54:54;12.60;48.30
1103;DHT22;538;42.654;23.376;2023-05-07T04:59:49;12.80;48.00
1103;DHT22;538;42.654;23.376;2023-05-07T05:02:16;12.70;48.10
1103;DHT22;538;42.654;23.376;2023-05-07T05:04:44;12.90;48.20
1103;DHT22;538;42.654;23.376;2023-05-07T05:09:39;13.00;47.10
1103;DHT22;538;42.654;23.376;2023-05-07T05:14:34;13.10;46.50
1103;DHT22;538;42.654;23.376;2023-05-07T05:21:56;13.30;45.20
1103;DHT22;538;42.654;23.376;2023-05-07T05:24:23;13.50;44.60
1103;DHT22;538;42.654;23.376;2023-05-07T05:26:53;13.30;44.40
1103;DHT22;538;42.654;23.376;2023-05-07T05:29:20;13.40;44.50
1103;DHT22;538;42.654;23.376;2023-05-07T05:34:14;13.30;45.00
1103;DHT22;538;42.654;23.376;2023-05-07T05:36:41;13.50;45.30
1103;DHT22;538;42.654;23.376;2023-05-07T05:39:09;13.50;45.00
1103;DHT22;538;42.654;23.376;2023-05-07T05:41:36;13.70;45.00
1103;DHT22;538;42.654;23.376;2023-05-07T05:46:31;13.80;46.00
1103;DHT22;538;42.654;23.376;2023-05-07T05:53:53;14.00;46.10
1103;DHT22;538;42.654;23.376;2023-05-07T05:56:22;14.00;45.90
1103;DHT22;538;42.654;23.376;2023-05-07T06:01:17;14.10;45.80
1103;DHT22;538;42.654;23.376;2023-05-07T06:06:11;14.30;44.80
1103;DHT22;538;42.654;23.376;2023-05-07T06:13:36;14.40;42.60
1103;DHT22;538;42.654;23.376;2023-05-07T06:16:04;14.50;41.00
1103;DHT22;538;42.654;23.376;2023-05-07T06:20:58;14.60;42.10
1103;DHT22;538;42.654;23.376;2023-05-07T06:23:25;14.40;41.90
1103;DHT22;538;42.654;23.376;2023-05-07T06:25:52;14.60;42.30
1103;DHT22;538;42.654;23.376;2023-05-07T06:28:19;14.60;42.10
1103;DHT22;538;42.654;23.376;2023-05-07T06:30:48;14.60;42.30
1103;DHT22;538;42.654;23.376;2023-05-07T06:35:46;14.70;43.00
1103;DHT22;538;42.654;23.376;2023-05-07T06:38:13;14.90;43.30
1103;DHT22;538;42.654;23.376;2023-05-07T06:40:41;15.00;43.10
1103;DHT22;538;42.654;23.376;2023-05-07T06:48:04;15.30;40.60
1103;DHT22;538;42.654;23.376;2023-05-07T06:50:31;15.30;40.60
1103;DHT22;538;42.654;23.376;2023-05-07T06:52:58;15.40;40.90
1103;DHT22;538;42.654;23.376;2023-05-07T06:55:25;15.40;40.00
1103;DHT22;538;42.654;23.376;2023-05-07T07:00:20;15.60;38.00
1103;DHT22;538;42.654;23.376;2023-05-07T07:05:15;15.90;37.50
1103;DHT22;538;42.654;23.376;2023-05-07T07:07:42;16.00;36.30
1103;DHT22;538;42.654;23.376;2023-05-07T07:10:10;16.00;36.70
1103;DHT22;538;42.654;23.376;2023-05-07T07:12:36;16.00;31.70
1103;DHT22;538;42.654;23.376;2023-05-07T07:15:04;16.20;30.80
1103;DHT22;538;42.654;23.376;2023-05-07T07:17:31;16.00;28.70
1103;DHT22;538;42.654;23.376;2023-05-07T07:22:27;16.20;29.60
1103;DHT22;538;42.654;23.376;2023-05-07T07:29:48;16.50;29.00
1103;DHT22;538;42.654;23.376;2023-05-07T07:37:10;16.70;27.40
1103;DHT22;538;42.654;23.376;2023-05-07T07:39:39;16.90;29.00
1103;DHT22;538;42.654;23.376;2023-05-07T07:44:33;17.00;28.60
1103;DHT22;538;42.654;23.376;2023-05-07T07:47:00;17.20;28.00
1103;DHT22;538;42.654;23.376;2023-05-07T07:49:27;17.10;27.60
1103;DHT22;538;42.654;23.376;2023-05-07T07:51:54;17.20;26.90
1103;DHT22;538;42.654;23.376;2023-05-07T07:54:22;17.30;26.60
1103;DHT22;538;42.654;23.376;2023-05-07T07:56:51;17.60;26.80
1103;DHT22;538;42.654;23.376;2023-05-07T07:59:18;17.50;26.40
1103;DHT22;538;42.654;23.376;2023-05-07T08:01:45;17.80;26.10
1103;DHT22;538;42.654;23.376;2023-05-07T08:14:04;18.40;23.20
1103;DHT22;538;42.654;23.376;2023-05-07T08:16:31;18.40;22.80
1103;DHT22;538;42.654;23.376;2023-05-07T08:23:53;18.60;19.10
1103;DHT22;538;42.654;23.376;2023-05-07T08:31:16;18.70;17.70
1103;DHT22;538;42.654;23.376;2023-05-07T08:33:43;18.70;19.00
1103;DHT22;538;42.654;23.376;2023-05-07T08:36:10;18.80;19.70
1103;DHT22;538;42.654;23.376;2023-05-07T08:38:37;19.20;21.00
1103;DHT22;538;42.654;23.376;2023-05-07T08:41:06;19.30;21.10
1103;DHT22;538;42.654;23.376;2023-05-07T08:43:33;19.20;20.20
1103;DHT22;538;42.654;23.376;2023-05-07T08:46:03;19.50;19.70
1103;DHT22;538;42.654;23.376;2023-05-07T08:48:32;19.80;19.60
1103;DHT22;538;42.654;23.376;2023-05-07T08:53:27;20.00;15.10
1103;DHT22;538;42.654;23.376;2023-05-07T08:55:55;20.00;13.90
1103;DHT22;538;42.654;23.376;2023-05-07T08:58:22;20.20;14.80
1103;DHT22;538;42.654;23.376;2023-05-07T09:00:49;20.10;13.90
1103;DHT22;538;42.654;23.376;2023-05-07T09:05:46;20.30;10.60
1103;DHT22;538;42.654;23.376;2023-05-07T09:08:15;20.50;11.40
1103;DHT22;538;42.654;23.376;2023-05-07T09:13:12;20.50;9.80
1103;DHT22;538;42.654;23.376;2023-05-07T09:20:36;20.90;12.00
1103;DHT22;538;42.654;23.376;2023-05-07T09:23:05;21.00;10.40
1103;DHT22;538;42.654;23.376;2023-05-07T09:25:33;21.30;11.70
1103;DHT22;538;42.654;23.376;2023-05-07T09:28:01;21.40;11.10
1103;DHT22;538;42.654;23.376;2023-05-07T09:30:29;21.90;11.00
1103;DHT22;538;42.654;23.376;2023-05-07T09:35:23;22.00;9.30
1103;DHT22;538;42.654;23.376;2023-05-07T09:37:53;22.40;8.50
1103;DHT22;538;42.654;23.376;2023-05-07T09:40:22;22.40;7.70
1103;DHT22;538;42.654;23.376;2023-05-07T09:42:50;22.70;6.80
1103;DHT22;538;42.654;23.376;2023-05-07T09:45:21;23.00;6.00
1103;DHT22;538;42.654;23.376;2023-05-07T09:47:49;23.60;7.00
1103;DHT22;538;42.654;23.376;2023-05-07T09:52:47;23.90;4.00
1103;DHT22;538;42.654;23.376;2023-05-07T09:55:15;24.00;3.30
1103;DHT22;538;42.654;23.376;2023-05-07T09:57:45;24.20;4.70
1103;DHT22;538;42.654;23.376;2023-05-07T10:00:13;24.30;3.40
1103;DHT22;538;42.654;23.376;2023-05-07T10:02:42;24.40;2.70
1103;DHT22;538;42.654;23.376;2023-05-07T10:05:14;24.70;3.00
1103;DHT22;538;42.654;23.376;2023-05-07T10:07:41;24.80;2.90
1103;DHT22;538;42.654;23.376;2023-05-07T10:12:37;25.40;2.60
1103;DHT22;538;42.654;23.376;2023-05-07T10:15:08;25.70;1.00
1103;DHT22;538;42.654;23.376;2023-05-07T10:20:04;26.10;1.00
1103;DHT22;538;42.654;23.376;2023-05-07T10:22:38;26.30;1.00
1103;DHT22;538;42.654;23.376;2023-05-07T10:25:09;26.20;1.00
1103;DHT22;538;42.654;23.376;2023-05-07T10:30:15;26.30;1.00
1103;DHT22;538;42.654;23.376;2023-05-07T10:32:47;26.40;1.00
1103;DHT22;538;42.654;23.376;2023-05-07T10:35:18;26.40;1.00
1103;DHT22;538;42.654;23.376;2023-05-07T10:37:47;26.40;1.00
1103;DHT22;538;42.654;23.376;2023-05-07T10:40:15;26.60;1.00
1103;DHT22;538;42.654;23.376;2023-05-07T10:42:58;26.70;1.00
1103;DHT22;538;42.654;23.376;2023-05-07T10:45:28;26.90;1.00
1103;DHT22;538;42.654;23.376;2023-05-07T10:48:12;27.00;1.00
1103;DHT22;538;42.654;23.376;2023-05-07T10:50:40;27.20;1.00
1103;DHT22;538;42.654;23.376;2023-05-07T10:53:23;27.40;1.00
1103;DHT22;538;42.654;23.376;2023-05-07T10:56:25;27.50;1.00
1103;DHT22;538;42.654;23.376;2023-05-07T10:59:30;27.80;1.00
1103;DHT22;538;42.654;23.376;2023-05-07T11:01:58;27.90;1.00
1103;DHT22;538;42.654;23.376;2023-05-07T11:04:28;27.80;1.00
1103;DHT22;538;42.654;23.376;2023-05-07T11:07:25;27.90;1.00
1103;DHT22;538;42.654;23.376;2023-05-07T11:09:56;28.10;1.00
1103;DHT22;538;42.654;23.376;2023-05-07T11:12:49;28.10;1.00
1103;DHT22;538;42.654;23.376;2023-05-07T11:15:35;28.30;1.00
1103;DHT22;538;42.654;23.376;2023-05-07T11:20:53;28.40;1.00
1103;DHT22;538;42.654;23.376;2023-05-07T11:26:43;28.70;1.00
1103;DHT22;538;42.654;23.376;2023-05-07T11:29:14;28.90;1.00
1103;DHT22;538;42.654;23.376;2023-05-07T11:31:41;29.10;1.00
1103;DHT22;538;42.654;23.376;2023-05-07T11:34:09;29.10;1.00
1103;DHT22;538;42.654;23.376;2023-05-07T11:36:41;29.20;1.00
1103;DHT22;538;42.654;23.376;2023-05-07T11:39:29;29.30;1.00
1103;DHT22;538;42.654;23.376;2023-05-07T11:44:42;29.30;1.00
1103;DHT22;538;42.654;23.376;2023-05-07T11:47:10;29.70;1.00
1103;DHT22;538;42.654;23.376;2023-05-07T11:49:37;30.50;1.00
1103;DHT22;538;42.654;23.376;2023-05-07T11:52:06;31.60;1.00
1103;DHT22;538;42.654;23.376;2023-05-07T11:54:37;32.60;1.00
1103;DHT22;538;42.654;23.376;2023-05-07T11:57:04;33.60;1.00
1103;DHT22;538;42.654;23.376;2023-05-07T11:59:38;34.60;1.00
1103;DHT22;538;42.654;23.376;2023-05-07T12:02:07;35.40;1.00
1103;DHT22;538;42.654;23.376;2023-05-07T12:04:34;35.70;1.00
1103;DHT22;538;42.654;23.376;2023-05-07T12:07:01;35.90;1.00
1103;DHT22;538;42.654;23.376;2023-05-07T12:09:28;36.00;1.00
1103;DHT22;538;42.654;23.376;2023-05-07T12:11:55;36.20;1.00
1103;DHT22;538;42.654;23.376;2023-05-07T12:14:26;36.30;1.00
1103;DHT22;538;42.654;23.376;2023-05-07T12:16:55;36.70;1.00
1103;DHT22;538;42.654;23.376;2023-05-07T12:19:22;37.20;1.00
1103;DHT22;538;42.654;23.376;2023-05-07T12:21:49;37.30;1.00
1103;DHT22;538;42.654;23.376;2023-05-07T12:26:45;37.50;1.00
1103;DHT22;538;42.654;23.376;2023-05-07T12:31:41;37.50;1.00
1103;DHT22;538;42.654;23.376;2023-05-07T12:34:10;37.60;1.00
1103;DHT22;538;42.654;23.376;2023-05-07T12:36:38;37.40;1.00
1103;DHT22;538;42.654;23.376;2023-05-07T12:39:05;37.20;1.00
1103;DHT22;538;42.654;23.376;2023-05-07T12:41:36;37.20;1.00
1103;DHT22;538;42.654;23.376;2023-05-07T12:44:18;37.20;1.00
1103;DHT22;538;42.654;23.376;2023-05-07T12:46:46;37.20;1.00
1103;DHT22;538;42.654;23.376;2023-05-07T12:49:15;37.50;1.00
1103;DHT22;538;42.654;23.376;2023-05-07T12:51:43;37.40;1.00
1103;DHT22;538;42.654;23.376;2023-05-07T12:56:38;36.90;1.00
1103;DHT22;538;42.654;23.376;2023-05-07T12:59:05;37.00;1.00
1103;DHT22;538;42.654;23.376;2023-05-07T13:01:34;37.10;1.00
1103;DHT22;538;42.654;23.376;2023-05-07T13:04:03;36.70;1.00
1103;DHT22;538;42.654;23.376;2023-05-07T13:06:32;35.90;1.00
1103;DHT22;538;42.654;23.376;2023-05-07T13:11:26;34.00;1.00
1103;DHT22;538;42.654;23.376;2023-05-07T13:13:53;33.60;1.00
1103;DHT22;538;42.654;23.376;2023-05-07T13:16:20;33.80;1.00
1103;DHT22;538;42.654;23.376;2023-05-07T13:21:15;34.80;1.00
1103;DHT22;538;42.654;23.376;2023-05-07T13:23:43;34.90;1.00
1103;DHT22;538;42.654;23.376;2023-05-07T13:26:10;35.10;1.00
1103;DHT22;538;42.654;23.376;2023-05-07T13:28:37;35.50;1.00
1103;DHT22;538;42.654;23.376;2023-05-07T13:31:04;36.10;1.00
1103;DHT22;538;42.654;23.376;2023-05-07T13:38:26;36.70;1.00
1103;DHT22;538;42.654;23.376;2023-05-07T13:40:55;36.30;1.00
1103;DHT22;538;42.654;23.376;2023-05-07T13:43:22;36.00;1.00
1103;DHT22;538;42.654;23.376;2023-05-07T13:45:49;35.80;1.00
1103;DHT22;538;42.654;23.376;2023-05-07T13:48:16;35.50;1.00
1103;DHT22;538;42.654;23.376;2023-05-07T13:50:43;34.90;1.00
1103;DHT22;538;42.654;23.376;2023-05-07T13:55:37;34.30;1.00
1103;DHT22;538;42.654;23.376;2023-05-07T13:58:05;34.50;1.00
1103;DHT22;538;42.654;23.376;2023-05-07T14:03:00;34.10;1.00
1103;DHT22;538;42.654;23.376;2023-05-07T14:05:27;34.10;1.00
1103;DHT22;538;42.654;23.376;2023-05-07T14:07:54;34.00;1.00
1103;DHT22;538;42.654;23.376;2023-05-07T14:10:22;33.50;1.00
1103;DHT22;538;42.654;23.376;2023-05-07T14:12:49;33.00;1.00
1103;DHT22;538;42.654;23.376;2023-05-07T14:15:18;32.40;1.00
1103;DHT22;538;42.654;23.376;2023-05-07T14:17:45;31.90;1.00
1103;DHT22;538;42.654;23.376;2023-05-07T14:20:12;31.40;1.00
1103;DHT22;538;42.654;23.376;2023-05-07T14:22:39;31.00;1.00
1103;DHT22;538;42.654;23.376;2023-05-07T14:25:07;31.10;1.00
1103;DHT22;538;42.654;23.376;2023-05-07T14:30:02;31.90;1.00
1103;DHT22;538;42.654;23.376;2023-05-07T14:32:31;31.80;1.00
1103;DHT22;538;42.654;23.376;2023-05-07T14:34:58;31.90;1.00
1103;DHT22;538;42.654;23.376;2023-05-07T14:39:53;31.30;1.00
1103;DHT22;538;42.654;23.376;2023-05-07T14:42:20;31.10;1.00
1103;DHT22;538;42.654;23.376;2023-05-07T14:44:47;30.70;1.00
1103;DHT22;538;42.654;23.376;2023-05-07T14:49:44;30.10;1.00
1103;DHT22;538;42.654;23.376;2023-05-07T14:52:11;30.20;1.00
1103;DHT22;538;42.654;23.376;2023-05-07T14:54:38;30.40;1.00
1103;DHT22;538;42.654;23.376;2023-05-07T14:57:06;30.70;1.00
1103;DHT22;538;42.654;23.376;2023-05-07T14:59:33;30.80;1.00
1103;DHT22;538;42.654;23.376;2023-05-07T15:02:00;30.80;1.00
1103;DHT22;538;42.654;23.376;2023-05-07T15:06:56;30.50;1.00
1103;DHT22;538;42.654;23.376;2023-05-07T15:14:18;29.90;1.00
1103;DHT22;538;42.654;23.376;2023-05-07T15:16:47;29.90;1.00
1103;DHT22;538;42.654;23.376;2023-05-07T15:19:14;29.70;1.00
1103;DHT22;538;42.654;23.376;2023-05-07T15:24:11;29.40;1.00
1103;DHT22;538;42.654;23.376;2023-05-07T15:29:05;29.40;1.00
1103;DHT22;538;42.654;23.376;2023-05-07T15:38:58;28.90;1.00
1103;DHT22;538;42.654;23.376;2023-05-07T15:41:29;28.80;1.00
1103;DHT22;538;42.654;23.376;2023-05-07T15:46:24;29.10;1.00
1103;DHT22;538;42.654;23.376;2023-05-07T15:48:51;29.20;1.00
1103;DHT22;538;42.654;23.376;2023-05-07T15:56:14;29.50;1.00
1103;DHT22;538;42.654;23.376;2023-05-07T15:58:43;29.50;1.00
1103;DHT22;538;42.654;23.376;2023-05-07T16:13:27;29.60;1.00
1103;DHT22;538;42.654;23.376;2023-05-07T16:15:58;29.70;1.00
1103;DHT22;538;42.654;23.376;2023-05-07T16:18:25;29.60;1.00
1103;DHT22;538;42.654;23.376;2023-05-07T16:23:20;29.50;1.00
1103;DHT22;538;42.654;23.376;2023-05-07T16:28:14;29.20;1.00
1103;DHT22;538;42.654;23.376;2023-05-07T16:30:41;28.90;1.00
1103;DHT22;538;42.654;23.376;2023-05-07T16:33:10;28.60;1.00
1103;DHT22;538;42.654;23.376;2023-05-07T16:40:37;28.00;1.00
1103;DHT22;538;42.654;23.376;2023-05-07T16:43:04;27.70;1.00
1103;DHT22;538;42.654;23.376;2023-05-07T16:47:59;27.20;1.00
1103;DHT22;538;42.654;23.376;2023-05-07T16:50:29;26.90;1.00
1103;DHT22;538;42.654;23.376;2023-05-07T16:55:24;26.50;1.00
1103;DHT22;538;42.654;23.376;2023-05-07T17:00:18;26.10;1.00
1103;DHT22;538;42.654;23.376;2023-05-07T17:07:41;25.50;1.00
1103;DHT22;538;42.654;23.376;2023-05-07T17:10:09;25.40;1.00
1103;DHT22;538;42.654;23.376;2023-05-07T17:15:05;24.90;1.00
1103;DHT22;538;42.654;23.376;2023-05-07T17:17:32;24.70;1.00
1103;DHT22;538;42.654;23.376;2023-05-07T17:19:59;24.60;1.00
1103;DHT22;538;42.654;23.376;2023-05-07T17:24:56;24.30;1.00
1103;DHT22;538;42.654;23.376;2023-05-07T17:29:50;23.90;1.80
1103;DHT22;538;42.654;23.376;2023-05-07T17:32:18;23.80;1.90
1103;DHT22;538;42.654;23.376;2023-05-07T17:37:13;23.40;1.90
1103;DHT22;538;42.654;23.376;2023-05-07T17:39:40;23.20;1.60
1103;DHT22;538;42.654;23.376;2023-05-07T17:42:09;22.80;1.60
1103;DHT22;538;42.654;23.376;2023-05-07T17:47:04;22.50;2.30
1103;DHT22;538;42.654;23.376;2023-05-07T17:49:32;22.50;2.70
1103;DHT22;538;42.654;23.376;2023-05-07T17:51:59;22.30;2.60
1103;DHT22;538;42.654;23.376;2023-05-07T17:54:26;22.20;2.90
1103;DHT22;538;42.654;23.376;2023-05-07T17:56:54;22.00;3.20
1103;DHT22;538;42.654;23.376;2023-05-07T17:59:23;22.00;3.00
1103;DHT22;538;42.654;23.376;2023-05-07T18:01:50;21.80;3.10
1103;DHT22;538;42.654;23.376;2023-05-07T18:04:17;21.70;3.50
1103;DHT22;538;42.654;23.376;2023-05-07T18:06:46;21.60;3.80
1103;DHT22;538;42.654;23.376;2023-05-07T18:11:40;21.50;4.30
1103;DHT22;538;42.654;23.376;2023-05-07T18:16:36;21.30;4.20
1103;DHT22;538;42.654;23.376;2023-05-07T18:26:25;20.90;4.60
1103;DHT22;538;42.654;23.376;2023-05-07T18:28:52;21.00;5.00
1103;DHT22;538;42.654;23.376;2023-05-07T18:31:19;21.00;5.30
1103;DHT22;538;42.654;23.376;2023-05-07T18:33:50;20.90;5.30
1103;DHT22;538;42.654;23.376;2023-05-07T18:36:17;20.80;5.50
1103;DHT22;538;42.654;23.376;2023-05-07T18:38:44;20.80;5.60
1103;DHT22;538;42.654;23.376;2023-05-07T18:41:11;20.70;5.60
1103;DHT22;538;42.654;23.376;2023-05-07T18:48:32;20.70;6.30
1103;DHT22;538;42.654;23.376;2023-05-07T18:51:02;20.70;6.50
1103;DHT22;538;42.654;23.376;2023-05-07T18:53:29;20.70;6.50
1103;DHT22;538;42.654;23.376;2023-05-07T18:55:56;20.50;6.60
1103;DHT22;538;42.654;23.376;2023-05-07T18:58:24;20.60;6.80
1103;DHT22;538;42.654;23.376;2023-05-07T19:05:47;20.30;7.40
1103;DHT22;538;42.654;23.376;2023-05-07T19:08:15;20.30;7.50
1103;DHT22;538;42.654;23.376;2023-05-07T19:10:42;20.30;7.70
1103;DHT22;538;42.654;23.376;2023-05-07T19:20:32;20.20;8.20
1103;DHT22;538;42.654;23.376;2023-05-07T19:25:28;20.10;8.20
1103;DHT22;538;42.654;23.376;2023-05-07T19:32:50;19.70;8.10
1103;DHT22;538;42.654;23.376;2023-05-07T19:40:12;19.70;8.30
1103;DHT22;538;42.654;23.376;2023-05-07T19:42:41;19.60;8.50
1103;DHT22;538;42.654;23.376;2023-05-07T19:45:10;19.50;8.40
1103;DHT22;538;42.654;23.376;2023-05-07T19:47:37;19.40;8.60
1103;DHT22;538;42.654;23.376;2023-05-07T19:50:05;19.40;8.70
1103;DHT22;538;42.654;23.376;2023-05-07T19:52:33;19.40;9.00
1103;DHT22;538;42.654;23.376;2023-05-07T19:55:00;18.70;8.90
1103;DHT22;538;42.654;23.376;2023-05-07T19:59:56;19.20;9.30
1103;DHT22;538;42.654;23.376;2023-05-07T20:02:23;19.10;9.50
1103;DHT22;538;42.654;23.376;2023-05-07T20:04:51;19.10;9.60
1103;DHT22;538;42.654;23.376;2023-05-07T20:09:46;19.00;9.70
1103;DHT22;538;42.654;23.376;2023-05-07T20:12:13;18.90;9.90
1103;DHT22;538;42.654;23.376;2023-05-07T20:14:42;18.90;9.80
1103;DHT22;538;42.654;23.376;2023-05-07T20:17:11;18.70;10.00
1103;DHT22;538;42.654;23.376;2023-05-07T20:19:38;18.80;10.30
1103;DHT22;538;42.654;23.376;2023-05-07T20:22:05;18.70;10.50
1103;DHT22;538;42.654;23.376;2023-05-07T20:24:36;18.60;11.10
1103;DHT22;538;42.654;23.376;2023-05-07T20:29:31;18.50;11.00
1103;DHT22;538;42.654;23.376;2023-05-07T20:31:58;18.50;11.00
1103;DHT22;538;42.654;23.376;2023-05-07T20:34:26;18.40;11.00
1103;DHT22;538;42.654;23.376;2023-05-07T20:36:54;18.30;10.90
1103;DHT22;538;42.654;23.376;2023-05-07T20:39:21;18.40;11.00
1103;DHT22;538;42.654;23.376;2023-05-07T20:41:49;18.50;11.30
1103;DHT22;538;42.654;23.376;2023-05-07T20:44:16;18.30;11.50
1103;DHT22;538;42.654;23.376;2023-05-07T20:46:44;18.40;11.70
1103;DHT22;538;42.654;23.376;2023-05-07T20:49:12;18.30;11.60
1103;DHT22;538;42.654;23.376;2023-05-07T20:51:41;18.20;11.40
1103;DHT22;538;42.654;23.376;2023-05-07T20:54:08;18.20;11.50
1103;DHT22;538;42.654;23.376;2023-05-07T20:56:37;18.30;11.70
1103;DHT22;538;42.654;23.376;2023-05-07T20:59:04;18.20;11.70
1103;DHT22;538;42.654;23.376;2023-05-07T21:03:59;18.10;12.00
1103;DHT22;538;42.654;23.376;2023-05-07T21:08:55;18.00;12.30
1103;DHT22;538;42.654;23.376;2023-05-07T21:11:22;18.10;12.30
1103;DHT22;538;42.654;23.376;2023-05-07T21:13:49;18.00;12.00
1103;DHT22;538;42.654;23.376;2023-05-07T21:18:43;17.80;11.70
1103;DHT22;538;42.654;23.376;2023-05-07T21:21:10;17.70;12.20
1103;DHT22;538;42.654;23.376;2023-05-07T21:26:07;17.70;12.30
1103;DHT22;538;42.654;23.376;2023-05-07T21:28:35;17.60;12.30
1103;DHT22;538;42.654;23.376;2023-05-07T21:31:02;17.60;12.30
1103;DHT22;538;42.654;23.376;2023-05-07T21:38:24;17.40;12.50
1103;DHT22;538;42.654;23.376;2023-05-07T21:43:20;17.40;12.60
1103;DHT22;538;42.654;23.376;2023-05-07T21:48:15;17.40;12.40
1103;DHT22;538;42.654;23.376;2023-05-07T21:50:46;17.30;12.80
1103;DHT22;538;42.654;23.376;2023-05-07T21:53:13;17.30;13.10
1103;DHT22;538;42.654;23.376;2023-05-07T21:55:40;17.30;13.40
1103;DHT22;538;42.654;23.376;2023-05-07T21:58:07;17.20;13.40
1103;DHT22;538;42.654;23.376;2023-05-07T22:00:36;17.30;13.40
1103;DHT22;538;42.654;23.376;2023-05-07T22:03:03;17.20;13.40
1103;DHT22;538;42.654;23.376;2023-05-07T22:05:30;17.20;13.30
1103;DHT22;538;42.654;23.376;2023-05-07T22:07:57;17.00;12.90
1103;DHT22;538;42.654;23.376;2023-05-07T22:10:24;17.10;13.50
1103;DHT22;538;42.654;23.376;2023-05-07T22:12:51;17.00;13.70
1103;DHT22;538;42.654;23.376;2023-05-07T22:15:18;17.10;14.00